createdAt,value
2018-05-03T00:00:38.219Z,35.19
2018-05-03T00:01:47.466Z,35.1
2018-05-03T00:02:57.255Z,35
2018-05-03T00:04:06.988Z,35.28
2018-05-03T00:05:16.478Z,35.28
2018-05-03T00:06:26.527Z,35.1
2018-05-03T00:07:36.006Z,35.19
2018-05-03T00:08:45.442Z,35.19
2018-05-03T00:09:54.600Z,35
2018-05-03T00:11:03.500Z,35.19
2018-05-03T00:12:13.179Z,35.19
2018-05-03T00:13:22.604Z,35.19
2018-05-03T00:14:32.027Z,35
2018-05-03T00:15:41.441Z,35.19
2018-05-03T00:16:51.364Z,35
2018-05-03T00:18:00.781Z,35.1
2018-05-03T00:19:10.234Z,34.8
2018-05-03T00:20:19.935Z,35.19
2018-05-03T00:21:29.090Z,35.19
2018-05-03T00:22:38.790Z,35.19
2018-05-03T00:23:48.218Z,35.19
2018-05-03T00:24:57.107Z,35.19
2018-05-03T00:26:06.807Z,35.19
2018-05-03T00:27:16.557Z,35.19
2018-05-03T00:28:25.480Z,35.1
2018-05-03T00:29:34.895Z,35.28
2018-05-03T00:30:44.055Z,34.8
2018-05-03T00:31:53.738Z,35.19
2018-05-03T00:33:03.154Z,35.19
2018-05-03T00:34:12.579Z,35.19
2018-05-03T00:35:21.806Z,35.19
2018-05-03T00:36:31.214Z,34.8
2018-05-03T00:37:40.121Z,35.19
2018-05-03T00:38:49.049Z,34.7
2018-05-03T00:39:58.474Z,34.8
2018-05-03T00:41:07.630Z,34.8
2018-05-03T00:42:17.386Z,34.8
2018-05-03T00:43:27.077Z,34.8
2018-05-03T00:44:37.014Z,34.7
2018-05-03T00:45:46.944Z,34.8
2018-05-03T00:46:56.106Z,34.8
2018-05-03T00:48:05.276Z,34.8
2018-05-03T00:49:14.452Z,34.8
2018-05-03T00:50:23.364Z,34.7
2018-05-03T00:51:32.792Z,34.8
2018-05-03T00:52:41.967Z,34.8
2018-05-03T00:53:51.902Z,34.7
2018-05-03T00:55:01.588Z,34.61
2018-05-03T00:56:10.757Z,34.7
2018-05-03T00:57:19.925Z,34.9
2018-05-03T00:58:29.331Z,34.7
2018-05-03T00:59:39.309Z,34.7
2018-05-03T01:00:48.719Z,34.8
2018-05-03T01:01:58.408Z,34.7
2018-05-03T01:03:08.354Z,34.8
2018-05-03T01:04:17.522Z,34.7
2018-05-03T01:05:26.714Z,34.8
2018-05-03T01:06:35.873Z,34.7
2018-05-03T01:07:44.773Z,34.8
2018-05-03T01:08:53.941Z,34.7
2018-05-03T01:10:03.095Z,34.8
2018-05-03T01:11:12.784Z,34.8
2018-05-03T01:12:21.476Z,34.52
2018-05-03T01:13:30.630Z,34.7
2018-05-03T01:14:40.068Z,34.8
2018-05-03T01:15:49.493Z,34.8
2018-05-03T01:16:58.653Z,34.8
2018-05-03T01:18:08.080Z,34.7
2018-05-03T01:19:16.787Z,34.7
2018-05-03T01:20:25.933Z,34.7
2018-05-03T01:21:35.625Z,34.7
2018-05-03T01:22:45.573Z,34.52
2018-05-03T01:23:54.760Z,34.61
2018-05-03T01:25:03.918Z,34.52
2018-05-03T01:26:12.807Z,34.52
2018-05-03T01:27:21.979Z,34.61
2018-05-03T01:28:31.920Z,34.7
2018-05-03T01:29:41.378Z,34.7
2018-05-03T01:30:50.806Z,34.7
2018-05-03T01:32:00.246Z,34.52
2018-05-03T01:33:09.708Z,34.7
2018-05-03T01:34:19.129Z,34.7
2018-05-03T01:35:28.814Z,34.52
2018-05-03T01:36:38.245Z,34.61
2018-05-03T01:37:47.669Z,34.61
2018-05-03T01:38:57.086Z,34.52
2018-05-03T01:40:06.245Z,34.52
2018-05-03T01:41:15.650Z,34.7
2018-05-03T01:42:24.860Z,34.52
2018-05-03T01:43:34.551Z,34.7
2018-05-03T01:44:43.982Z,34.9
2018-05-03T01:45:53.384Z,34.7
2018-05-03T01:47:02.301Z,34.7
2018-05-03T01:48:11.725Z,34.52
2018-05-03T01:49:21.389Z,34.52
2018-05-03T01:50:30.297Z,34.61
2018-05-03T01:51:39.703Z,34.61
2018-05-03T01:52:48.875Z,34.61
2018-05-03T01:53:58.719Z,34.52
2018-05-03T01:55:08.417Z,34.7
2018-05-03T01:56:17.596Z,34.61
2018-05-03T01:57:27.557Z,34.7
2018-05-03T01:58:37.250Z,34.61
2018-05-03T01:59:46.675Z,34.61
2018-05-03T02:00:56.346Z,34.52
2018-05-03T02:02:05.758Z,34.61
2018-05-03T02:03:14.924Z,34.52
2018-05-03T02:04:24.352Z,34.61
2018-05-03T02:05:33.817Z,34.61
2018-05-03T02:06:42.713Z,34.7
2018-05-03T02:07:51.881Z,34.9
2018-05-03T02:09:01.042Z,34.7
2018-05-03T02:10:10.191Z,34.52
2018-05-03T02:11:19.363Z,34.8
2018-05-03T02:12:28.532Z,34.52
2018-05-03T02:13:37.429Z,34.8
2018-05-03T02:14:46.846Z,34.61
2018-05-03T02:15:56.001Z,34.7
2018-05-03T02:17:05.719Z,34.61
2018-05-03T02:18:15.160Z,34.61
2018-05-03T02:19:25.084Z,34.61
2018-05-03T02:20:34.519Z,34.61
2018-05-03T02:21:43.929Z,34.7
2018-05-03T02:22:52.845Z,34.8
2018-05-03T02:24:02.509Z,34.7
2018-05-03T02:25:11.665Z,34.52
2018-05-03T02:26:21.134Z,34.8
2018-05-03T02:27:31.092Z,34.8
2018-05-03T02:28:40.518Z,34.8
2018-05-03T02:29:49.201Z,34.61
2018-05-03T02:30:58.363Z,34.7
2018-05-03T02:32:07.642Z,34.7
2018-05-03T02:33:16.816Z,34.8
2018-05-03T02:34:27.165Z,34.52
2018-05-03T02:35:36.603Z,34.8
2018-05-03T02:36:45.762Z,34.7
2018-05-03T02:37:54.924Z,34.7
2018-05-03T02:39:04.370Z,34.8
2018-05-03T02:40:14.086Z,34.8
2018-05-03T02:41:23.508Z,34.7
2018-05-03T02:42:32.688Z,34.7
2018-05-03T02:43:42.616Z,34.8
2018-05-03T02:44:51.768Z,34.8
2018-05-03T02:46:01.754Z,34.7
2018-05-03T02:47:10.929Z,35.19
2018-05-03T02:48:20.143Z,34.8
2018-05-03T02:49:29.341Z,35.1
2018-05-03T02:50:38.785Z,35.19
2018-05-03T02:51:48.468Z,34.9
2018-05-03T02:52:58.162Z,35.19
2018-05-03T02:54:07.857Z,35.28
2018-05-03T02:55:17.038Z,35.19
2018-05-03T02:56:26.764Z,35.28
2018-05-03T02:57:35.666Z,35.19
2018-05-03T02:58:45.607Z,35.19
2018-05-03T02:59:54.782Z,35.19
2018-05-03T03:01:03.952Z,35.19
2018-05-03T03:02:13.414Z,35.28
2018-05-03T03:03:23.289Z,35.1
2018-05-03T03:04:32.467Z,35.1
2018-05-03T03:05:42.151Z,35.19
2018-05-03T03:06:51.584Z,35.1
2018-05-03T03:08:01.004Z,35.28
2018-05-03T03:09:10.693Z,35.1
2018-05-03T03:10:20.628Z,35.1
2018-05-03T03:11:29.787Z,35.28
2018-05-03T03:12:39.230Z,35.19
2018-05-03T03:13:48.907Z,35.19
2018-05-03T03:14:57.875Z,35.19
2018-05-03T03:16:07.281Z,35.28
2018-05-03T03:17:16.435Z,35.19
2018-05-03T03:18:25.835Z,35.19
2018-05-03T03:19:35.243Z,35.19
2018-05-03T03:20:44.422Z,35.19
2018-05-03T03:21:53.876Z,35.19
2018-05-03T03:23:03.668Z,35.19
2018-05-03T03:24:12.554Z,35.1
2018-05-03T03:25:22.227Z,35
2018-05-03T03:26:31.641Z,35.1
2018-05-03T03:27:41.318Z,35
2018-05-03T03:28:50.727Z,35
2018-05-03T03:30:00.158Z,35.19
2018-05-03T03:31:09.835Z,35
2018-05-03T03:32:19.276Z,34.9
2018-05-03T03:33:28.742Z,35.1
2018-05-03T03:34:38.166Z,35
2018-05-03T03:35:47.841Z,35
2018-05-03T03:36:57.242Z,35
2018-05-03T03:38:06.390Z,35
2018-05-03T03:39:15.860Z,35
2018-05-03T03:40:25.034Z,35
2018-05-03T03:41:34.712Z,35.1
2018-05-03T03:42:43.878Z,35.1
2018-05-03T03:43:53.287Z,35
2018-05-03T03:45:02.461Z,35
2018-05-03T03:46:12.140Z,35
2018-05-03T03:47:21.550Z,35.19
2018-05-03T03:48:30.741Z,35.1
2018-05-03T03:49:40.198Z,34.9
2018-05-03T03:50:49.653Z,35
2018-05-03T03:51:59.076Z,35
2018-05-03T03:53:08.781Z,35.1
2018-05-03T03:54:18.697Z,35
2018-05-03T03:55:28.895Z,35.19
2018-05-03T03:56:38.315Z,35.19
2018-05-03T03:57:47.747Z,35.1
2018-05-03T03:58:57.408Z,35.19
2018-05-03T04:00:06.626Z,35.1
2018-05-03T04:01:16.564Z,35.1
2018-05-03T04:02:25.462Z,35.19
2018-05-03T04:03:34.887Z,35.1
2018-05-03T04:04:44.310Z,35.19
2018-05-03T04:05:53.971Z,35
2018-05-03T04:07:03.384Z,35.1
2018-05-03T04:08:12.527Z,35.19
2018-05-03T04:09:21.690Z,35.19
2018-05-03T04:10:31.380Z,35.19
2018-05-03T04:11:40.526Z,35
2018-05-03T04:12:49.948Z,35
2018-05-03T04:13:59.374Z,35.1
2018-05-03T04:15:08.532Z,35.28
2018-05-03T04:16:17.948Z,35.19
2018-05-03T04:17:27.374Z,35.19
2018-05-03T04:18:36.535Z,35.28
2018-05-03T04:19:46.216Z,35.28
2018-05-03T04:20:55.635Z,35.19
2018-05-03T04:22:05.304Z,35.28
2018-05-03T04:23:14.820Z,35.19
2018-05-03T04:24:24.509Z,35.19
2018-05-03T04:25:33.710Z,35.19
2018-05-03T04:26:43.684Z,35.19
2018-05-03T04:27:53.409Z,35.19
2018-05-03T04:29:02.298Z,35.19
2018-05-03T04:30:11.720Z,35
2018-05-03T04:31:21.666Z,35.1
2018-05-03T04:32:31.330Z,35.19
2018-05-03T04:33:40.757Z,35.19
2018-05-03T04:34:50.433Z,35.19
2018-05-03T04:35:59.375Z,35.28
2018-05-03T04:37:08.808Z,35.28
2018-05-03T04:38:18.289Z,35.38
2018-05-03T04:39:27.709Z,35.38
2018-05-03T04:40:36.630Z,35.28
2018-05-03T04:41:45.799Z,35.38
2018-05-03T04:42:54.952Z,35.38
2018-05-03T04:44:04.379Z,35.38
2018-05-03T04:45:13.557Z,35.19
2018-05-03T04:46:23.229Z,35.19
2018-05-03T04:47:32.418Z,35.48
2018-05-03T04:48:42.114Z,35.48
2018-05-03T04:49:51.001Z,35.28
2018-05-03T04:51:00.662Z,35.19
2018-05-03T04:52:09.567Z,35.48
2018-05-03T04:53:18.479Z,35.28
2018-05-03T04:54:28.161Z,35.48
2018-05-03T04:55:38.114Z,35.38
2018-05-03T04:56:47.517Z,35.38
2018-05-03T04:57:57.192Z,35.36
2018-05-03T04:59:06.856Z,35.36
2018-05-03T05:00:16.275Z,35.38
2018-05-03T05:01:25.944Z,35.58
2018-05-03T05:02:34.847Z,35.58
2018-05-03T05:03:44.512Z,35.58
2018-05-03T05:04:53.932Z,35.48
2018-05-03T05:06:02.823Z,35.28
2018-05-03T05:07:11.976Z,35.19
2018-05-03T05:08:21.129Z,35.48
2018-05-03T05:09:30.045Z,35.48
2018-05-03T05:10:39.887Z,35.48
2018-05-03T05:11:49.324Z,35.48
2018-05-03T05:12:58.985Z,35.19
2018-05-03T05:14:08.680Z,35.28
2018-05-03T05:15:17.835Z,35.28
2018-05-03T05:16:27.267Z,35.38
2018-05-03T05:17:36.689Z,35.19
2018-05-03T05:18:46.094Z,35.38
2018-05-03T05:19:55.525Z,35.19
2018-05-03T05:21:04.707Z,35.19
2018-05-03T05:22:14.175Z,35.48
2018-05-03T05:23:23.632Z,35.28
2018-05-03T05:24:33.034Z,35.48
2018-05-03T05:25:42.709Z,35.48
2018-05-03T05:26:52.371Z,35.28
2018-05-03T05:28:01.775Z,35.38
2018-05-03T05:29:10.685Z,35.38
2018-05-03T05:30:20.369Z,35.38
2018-05-03T05:31:29.090Z,35.48
2018-05-03T05:32:38.756Z,35.28
2018-05-03T05:33:48.171Z,35.28
2018-05-03T05:34:57.334Z,35.48
2018-05-03T05:36:06.499Z,35.48
2018-05-03T05:37:15.658Z,35.48
2018-05-03T05:38:25.196Z,35.38
2018-05-03T05:39:34.998Z,35.48
2018-05-03T05:40:43.912Z,35.48
2018-05-03T05:41:53.339Z,35.38
2018-05-03T05:43:02.742Z,35.38
2018-05-03T05:44:11.926Z,35.38
2018-05-03T05:45:21.801Z,35.38
2018-05-03T05:46:30.723Z,35.38
2018-05-03T05:47:39.963Z,35.38
2018-05-03T05:48:49.424Z,35.48
2018-05-03T05:49:58.838Z,35.38
2018-05-03T05:51:08.667Z,35.48
2018-05-03T05:52:18.932Z,35.28
2018-05-03T05:53:28.623Z,35.38
2018-05-03T05:54:38.042Z,35.58
2018-05-03T05:55:46.948Z,35.48
2018-05-03T05:56:56.410Z,35.58
2018-05-03T05:58:05.351Z,35.48
2018-05-03T05:59:15.024Z,35.48
2018-05-03T06:00:24.450Z,35.46
2018-05-03T06:01:33.868Z,35.58
2018-05-03T06:02:43.634Z,35.58
2018-05-03T06:03:53.626Z,35.58
2018-05-03T06:05:03.077Z,35.48
2018-05-03T06:06:12.241Z,35.58
2018-05-03T06:07:22.167Z,35.58
2018-05-03T06:08:31.568Z,35.58
2018-05-03T06:09:40.455Z,35.58
2018-05-03T06:10:49.629Z,35.48
2018-05-03T06:11:58.813Z,35.58
2018-05-03T06:13:08.225Z,35.48
2018-05-03T06:14:17.631Z,35.48
2018-05-03T06:15:26.840Z,35.48
2018-05-03T06:16:36.673Z,35.48
2018-05-03T06:17:45.823Z,35.48
2018-05-03T06:18:55.011Z,35.86
2018-05-03T06:20:04.520Z,35.58
2018-05-03T06:21:14.460Z,35.58
2018-05-03T06:22:23.628Z,35.67
2018-05-03T06:23:33.065Z,35.48
2018-05-03T06:24:42.755Z,35.58
2018-05-03T06:25:51.934Z,35.48
2018-05-03T06:27:02.029Z,35.48
2018-05-03T06:28:11.473Z,35.58
2018-05-03T06:29:20.902Z,35.48
2018-05-03T06:30:30.328Z,35.86
2018-05-03T06:31:39.497Z,35.58
2018-05-03T06:32:48.911Z,35.58
2018-05-03T06:33:58.347Z,35.58
2018-05-03T06:35:07.851Z,35.58
2018-05-03T06:36:17.275Z,35.48
2018-05-03T06:37:26.947Z,35.48
2018-05-03T06:38:36.137Z,35.48
2018-05-03T06:39:45.801Z,35.48
2018-05-03T06:40:55.547Z,35.58
2018-05-03T06:42:04.706Z,35.58
2018-05-03T06:43:14.216Z,35.48
2018-05-03T06:44:23.661Z,35.38
2018-05-03T06:45:32.833Z,35.67
2018-05-03T06:46:42.523Z,35.48
2018-05-03T06:47:52.227Z,35.77
2018-05-03T06:49:01.180Z,35.58
2018-05-03T06:50:10.596Z,35.48
2018-05-03T06:51:20.081Z,35.58
2018-05-03T06:52:29.876Z,35.48
2018-05-03T06:53:39.610Z,35.48
2018-05-03T06:54:49.041Z,35.58
2018-05-03T06:55:58.719Z,35.86
2018-05-03T06:57:08.388Z,35.48
2018-05-03T06:58:17.853Z,35.58
2018-05-03T06:59:27.550Z,35.58
2018-05-03T07:00:37.265Z,35.58
2018-05-03T07:01:46.711Z,35.58
2018-05-03T07:02:56.643Z,35.48
2018-05-03T07:04:05.851Z,35.86
2018-05-03T07:05:15.608Z,35.67
2018-05-03T07:06:25.295Z,35.58
2018-05-03T07:07:34.757Z,35.48
2018-05-03T07:08:43.921Z,35.58
2018-05-03T07:09:53.694Z,35.58
2018-05-03T07:11:03.790Z,35.58
2018-05-03T07:12:13.473Z,35.67
2018-05-03T07:13:22.934Z,35.58
2018-05-03T07:14:32.362Z,35.67
2018-05-03T07:15:41.590Z,35.67
2018-05-03T07:16:50.524Z,35.67
2018-05-03T07:17:59.729Z,35.48
2018-05-03T07:19:08.925Z,35.58
2018-05-03T07:20:17.836Z,35.58
2018-05-03T07:21:27.011Z,35.67
2018-05-03T07:22:36.797Z,35.67
2018-05-03T07:23:46.250Z,35.77
2018-05-03T07:24:56.375Z,35.67
2018-05-03T07:26:05.788Z,35.67
2018-05-03T07:27:14.991Z,35.67
2018-05-03T07:28:24.426Z,35.48
2018-05-03T07:29:34.134Z,35.58
2018-05-03T07:30:43.060Z,35.48
2018-05-03T07:31:53.020Z,35.67
2018-05-03T07:33:02.240Z,35.58
2018-05-03T07:34:11.667Z,35.77
2018-05-03T07:35:21.096Z,35.58
2018-05-03T07:36:30.543Z,35.77
2018-05-03T07:37:39.726Z,35.48
2018-05-03T07:38:48.909Z,35.67
2018-05-03T07:39:58.587Z,35.58
2018-05-03T07:41:08.411Z,35.58
2018-05-03T07:42:17.583Z,35.67
2018-05-03T07:43:27.011Z,35.58
2018-05-03T07:44:36.435Z,35.58
2018-05-03T07:45:45.883Z,35.67
2018-05-03T07:46:55.409Z,35.67
2018-05-03T07:48:04.888Z,35.58
2018-05-03T07:49:14.352Z,35.67
2018-05-03T07:50:24.030Z,35.67
2018-05-03T07:51:33.462Z,35.67
2018-05-03T07:52:42.898Z,35.67
2018-05-03T07:53:52.081Z,35.48
2018-05-03T07:55:01.248Z,35.58
2018-05-03T07:56:10.405Z,35.77
2018-05-03T07:57:19.755Z,35.77
2018-05-03T07:58:29.170Z,35.77
2018-05-03T07:59:38.326Z,35.77
2018-05-03T08:00:48.092Z,35.48
2018-05-03T08:01:57.256Z,35.48
2018-05-03T08:03:07.177Z,35.58
2018-05-03T08:04:16.337Z,35.48
2018-05-03T08:05:25.769Z,35.77
2018-05-03T08:06:35.464Z,35.86
2018-05-03T08:07:44.886Z,35.48
2018-05-03T08:08:54.048Z,35.77
2018-05-03T08:10:03.976Z,35.58
2018-05-03T08:11:13.397Z,35.77
2018-05-03T08:12:22.551Z,35.48
2018-05-03T08:13:32.071Z,35.96
2018-05-03T08:14:41.501Z,35.58
2018-05-03T08:15:50.396Z,35.77
2018-05-03T08:16:59.320Z,35.86
2018-05-03T08:18:09.557Z,35.77
2018-05-03T08:19:18.973Z,35.48
2018-05-03T08:20:28.935Z,35.77
2018-05-03T08:21:37.573Z,35.58
2018-05-03T08:22:46.488Z,35.58
2018-05-03T08:23:55.904Z,35.86
2018-05-03T08:25:05.584Z,35.86
2018-05-03T08:26:15.290Z,35.48
2018-05-03T08:27:24.725Z,35.58
2018-05-03T08:28:34.234Z,35.77
2018-05-03T08:29:43.959Z,35.86
2018-05-03T08:30:53.151Z,35.48
2018-05-03T08:32:02.820Z,35.86
2018-05-03T08:33:11.989Z,35.96
2018-05-03T08:34:21.458Z,35.77
2018-05-03T08:35:30.643Z,35.77
2018-05-03T08:36:40.092Z,35.77
2018-05-03T08:37:49.251Z,35.67
2018-05-03T08:38:58.655Z,35.96
2018-05-03T08:40:08.081Z,35.96
2018-05-03T08:41:17.304Z,35.77
2018-05-03T08:42:26.735Z,35.48
2018-05-03T08:43:36.214Z,35.77
2018-05-03T08:44:45.652Z,35.77
2018-05-03T08:45:55.326Z,35.96
2018-05-03T08:47:05.133Z,35.96
2018-05-03T08:48:14.319Z,35.58
2018-05-03T08:49:23.550Z,35.58
2018-05-03T08:50:32.725Z,35.58
2018-05-03T08:51:42.408Z,35.58
2018-05-03T08:52:52.093Z,35.77
2018-05-03T08:54:01.759Z,35.58
2018-05-03T08:55:10.433Z,35.58
2018-05-03T08:56:19.908Z,35.77
2018-05-03T08:57:29.404Z,35.58
2018-05-03T08:58:38.366Z,35.77
2018-05-03T08:59:47.813Z,35.77
2018-05-03T09:00:57.593Z,35.86
2018-05-03T09:02:07.326Z,35.77
2018-05-03T09:03:17.033Z,35.77
2018-05-03T09:04:26.966Z,35.86
2018-05-03T09:05:36.415Z,35.86
2018-05-03T09:06:45.837Z,35.86
2018-05-03T09:07:54.922Z,35.77
2018-05-03T09:09:04.703Z,35.86
2018-05-03T09:10:14.128Z,35.86
2018-05-03T09:11:23.554Z,35.77
2018-05-03T09:12:32.992Z,35.77
2018-05-03T09:13:42.665Z,35.86
2018-05-03T09:14:51.860Z,35.96
2018-05-03T09:16:01.573Z,35.86
2018-05-03T09:17:10.732Z,35.67
2018-05-03T09:18:19.910Z,35.86
2018-05-03T09:19:29.117Z,35.86
2018-05-03T09:20:38.296Z,35.77
2018-05-03T09:21:47.713Z,35.86
2018-05-03T09:22:57.148Z,35.96
2018-05-03T09:24:06.615Z,35.86
2018-05-03T09:25:16.044Z,35.58
2018-05-03T09:26:24.936Z,35.77
2018-05-03T09:27:33.838Z,35.96
2018-05-03T09:28:42.996Z,35.86
2018-05-03T09:29:52.167Z,35.58
2018-05-03T09:31:01.361Z,35.96
2018-05-03T09:32:10.875Z,35.58
2018-05-03T09:33:19.785Z,35.58
2018-05-03T09:34:28.695Z,35.96
2018-05-03T09:35:38.363Z,35.77
2018-05-03T09:36:47.785Z,35.77
2018-05-03T09:37:57.193Z,35.77
2018-05-03T09:39:07.054Z,35.58
2018-05-03T09:40:16.679Z,35.77
2018-05-03T09:41:25.844Z,35.77
2018-05-03T09:42:35.037Z,35.96
2018-05-03T09:43:44.893Z,35.77
2018-05-03T09:44:54.083Z,35.96
2018-05-03T09:46:03.285Z,35.96
2018-05-03T09:47:12.940Z,35.58
2018-05-03T09:48:22.380Z,35.77
2018-05-03T09:49:31.809Z,35.86
2018-05-03T09:50:41.521Z,35.58
2018-05-03T09:51:51.209Z,35.86
2018-05-03T09:53:00.649Z,35.48
2018-05-03T09:54:10.617Z,35.77
2018-05-03T09:55:20.041Z,35.77
2018-05-03T09:56:29.243Z,35.77
2018-05-03T09:57:38.921Z,35.96
2018-05-03T09:58:48.329Z,35.77
2018-05-03T09:59:57.750Z,35.96
2018-05-03T10:01:07.443Z,35.77
2018-05-03T10:02:16.862Z,35.77
2018-05-03T10:03:26.551Z,35.77
2018-05-03T10:04:36.229Z,35.77
2018-05-03T10:05:46.015Z,35.86
2018-05-03T10:06:55.185Z,35.86
2018-05-03T10:08:04.359Z,35.58
2018-05-03T10:09:14.041Z,35.96
2018-05-03T10:10:23.494Z,35.77
2018-05-03T10:11:32.924Z,35.58
2018-05-03T10:12:42.090Z,35.86
2018-05-03T10:13:51.782Z,35.67
2018-05-03T10:15:00.675Z,35.77
2018-05-03T10:16:09.853Z,35.86
2018-05-03T10:17:19.010Z,35.86
2018-05-03T10:18:28.188Z,35.77
2018-05-03T10:19:37.353Z,35.86
2018-05-03T10:20:46.759Z,35.67
2018-05-03T10:21:56.437Z,35.77
2018-05-03T10:23:05.903Z,35.58
2018-05-03T10:24:15.064Z,35.77
2018-05-03T10:25:23.729Z,35.77
2018-05-03T10:26:32.889Z,35.77
2018-05-03T10:27:42.095Z,35.78
2018-05-03T10:28:51.598Z,35.77
2018-05-03T10:30:01.003Z,35.86
2018-05-03T10:31:10.963Z,35.77
2018-05-03T10:32:20.118Z,35.77
2018-05-03T10:33:29.821Z,35.77
2018-05-03T10:34:38.991Z,35.96
2018-05-03T10:35:48.356Z,35.77
2018-05-03T10:36:57.982Z,35.86
2018-05-03T10:38:07.673Z,35.86
2018-05-03T10:39:17.386Z,35.77
2018-05-03T10:40:26.842Z,35.67
2018-05-03T10:41:35.769Z,35.86
2018-05-03T10:42:45.472Z,35.86
2018-05-03T10:43:55.196Z,35.86
2018-05-03T10:45:04.965Z,35.77
2018-05-03T10:46:14.155Z,35.67
2018-05-03T10:47:23.571Z,35.67
2018-05-03T10:48:32.748Z,35.77
2018-05-03T10:49:42.404Z,35.67
2018-05-03T10:50:51.582Z,35.77
2018-05-03T10:52:00.752Z,35.77
2018-05-03T10:53:10.188Z,35.77
2018-05-03T10:54:19.885Z,35.77
2018-05-03T10:55:29.322Z,35.77
2018-05-03T10:56:38.220Z,35.77
2018-05-03T10:57:47.173Z,35.77
2018-05-03T10:58:56.585Z,35.77
2018-05-03T11:00:05.754Z,35.77
2018-05-03T11:01:15.240Z,35.86
2018-05-03T11:02:24.933Z,35.86
2018-05-03T11:03:34.385Z,35.77
2018-05-03T11:04:44.059Z,35.86
2018-05-03T11:05:53.727Z,35.77
2018-05-03T11:07:03.200Z,35.86
2018-05-03T11:08:12.366Z,35.67
2018-05-03T11:09:22.091Z,35.77
2018-05-03T11:10:31.522Z,35.77
2018-05-03T11:11:40.434Z,35.77
2018-05-03T11:12:49.599Z,35.86
2018-05-03T11:13:58.509Z,35.96
2018-05-03T11:15:08.180Z,35.86
2018-05-03T11:16:17.597Z,35.58
2018-05-03T11:17:27.303Z,35.58
2018-05-03T11:18:36.733Z,35.96
2018-05-03T11:19:45.900Z,35.86
2018-05-03T11:20:55.092Z,35.58
2018-05-03T11:22:04.550Z,35.58
2018-05-03T11:23:13.995Z,35.58
2018-05-03T11:24:23.469Z,35.86
2018-05-03T11:25:33.190Z,35.77
2018-05-03T11:26:43.130Z,35.86
2018-05-03T11:27:52.552Z,35.86
2018-05-03T11:29:01.978Z,35.86
2018-05-03T11:30:11.434Z,35.78
2018-05-03T11:31:20.660Z,35.86
2018-05-03T11:32:30.057Z,35.59
2018-05-03T11:33:39.480Z,35.86
2018-05-03T11:34:49.164Z,35.77
2018-05-03T11:35:58.854Z,35.77
2018-05-03T11:37:08.530Z,35.77
2018-05-03T11:38:18.213Z,35.86
2018-05-03T11:39:27.714Z,35.77
2018-05-03T11:40:37.172Z,35.86
2018-05-03T11:41:46.889Z,35.77
2018-05-03T11:42:56.054Z,35.77
2018-05-03T11:44:05.568Z,35.86
2018-05-03T11:45:14.990Z,35.67
2018-05-03T11:46:23.933Z,35.67
2018-05-03T11:47:33.123Z,35.67
2018-05-03T11:48:41.842Z,35.86
2018-05-03T11:49:51.734Z,35.77
2018-05-03T11:51:01.163Z,35.88
2018-05-03T11:52:10.068Z,35.86
2018-05-03T11:53:19.549Z,35.77
2018-05-03T11:54:28.960Z,35.86
2018-05-03T11:55:38.197Z,35.86
2018-05-03T11:56:47.867Z,35.86
2018-05-03T11:57:57.285Z,35.67
2018-05-03T11:59:06.806Z,35.77
2018-05-03T12:00:16.125Z,35.69
2018-05-03T12:01:25.296Z,35.88
2018-05-03T12:02:34.848Z,35.88
2018-05-03T12:03:44.002Z,35.67
2018-05-03T12:04:53.402Z,35.86
2018-05-03T12:06:02.942Z,35.69
2018-05-03T12:07:12.583Z,35.77
2018-05-03T12:08:22.283Z,35.77
2018-05-03T12:09:31.977Z,35.78
2018-05-03T12:10:41.669Z,35.88
2018-05-03T12:11:51.152Z,35.77
2018-05-03T12:13:00.957Z,35.86
2018-05-03T12:14:10.385Z,35.78
2018-05-03T12:15:19.058Z,35.86
2018-05-03T12:16:28.484Z,35.77
2018-05-03T12:17:37.921Z,35.86
2018-05-03T12:18:47.384Z,35.77
2018-05-03T12:19:56.629Z,35.96
2018-05-03T12:21:06.049Z,35.86
2018-05-03T12:22:15.202Z,35.77
2018-05-03T12:23:24.356Z,35.77
2018-05-03T12:24:33.774Z,35.77
2018-05-03T12:25:43.440Z,35.86
2018-05-03T12:26:53.134Z,35.86
2018-05-03T12:28:02.538Z,35.77
2018-05-03T12:29:11.481Z,35.77
2018-05-03T12:30:21.168Z,35.58
2018-05-03T12:31:31.101Z,35.77
2018-05-03T12:32:40.529Z,35.77
2018-05-03T12:33:50.241Z,35.77
2018-05-03T12:34:59.747Z,35.86
2018-05-03T12:36:09.972Z,35.77
2018-05-03T12:37:20.081Z,35.77
2018-05-03T12:38:28.979Z,35.58
2018-05-03T12:39:37.907Z,35.86
2018-05-03T12:40:47.075Z,35.86
2018-05-03T12:41:56.746Z,35.77
2018-05-03T12:43:05.923Z,35.86
2018-05-03T12:44:14.867Z,35.58
2018-05-03T12:45:24.326Z,35.58
2018-05-03T12:46:33.732Z,35.78
2018-05-03T12:47:43.141Z,35.48
2018-05-03T12:48:52.568Z,35.58
2018-05-03T12:50:01.987Z,35.86
2018-05-03T12:51:11.416Z,35.77
2018-05-03T12:52:20.819Z,35.58
2018-05-03T12:53:30.506Z,35.96
2018-05-03T12:54:40.453Z,35.86
2018-05-03T12:55:49.613Z,35.58
2018-05-03T12:56:59.828Z,35.96
2018-05-03T12:58:11.767Z,35.86
2018-05-03T12:59:22.506Z,35.58
2018-05-03T13:00:32.982Z,35.58
2018-05-03T13:01:42.409Z,35.77
2018-05-03T13:02:51.593Z,35.86
2018-05-03T13:04:00.496Z,35.98
2018-05-03T13:05:09.665Z,35.59
2018-05-03T13:06:18.564Z,35.86
2018-05-03T13:07:27.997Z,35.77
2018-05-03T13:08:37.170Z,35.77
2018-05-03T13:09:46.865Z,35.78
2018-05-03T13:10:56.283Z,35.77
2018-05-03T13:12:05.709Z,35.77
2018-05-03T13:13:15.130Z,35.88
2018-05-03T13:14:24.636Z,35.77
2018-05-03T13:15:34.064Z,35.77
2018-05-03T13:16:42.965Z,35.48
2018-05-03T13:17:52.679Z,35.58
2018-05-03T13:19:02.368Z,35.48
2018-05-03T13:20:12.245Z,35.48
2018-05-03T13:21:22.180Z,35.58
2018-05-03T13:22:31.342Z,35.69
2018-05-03T13:23:40.860Z,35.67
2018-05-03T13:24:50.289Z,35.67
2018-05-03T13:25:59.776Z,35.58
2018-05-03T13:27:08.701Z,35.67
2018-05-03T13:28:18.413Z,35.67
2018-05-03T13:29:28.101Z,35.69
2018-05-03T13:30:37.004Z,35.58
2018-05-03T13:31:45.921Z,35.77
2018-05-03T13:32:55.650Z,35.58
2018-05-03T13:34:04.299Z,35.48
2018-05-03T13:35:14.243Z,35.58
2018-05-03T13:36:24.089Z,35.67
2018-05-03T13:37:33.166Z,35.59
2018-05-03T13:38:42.442Z,35.59
2018-05-03T13:39:51.909Z,35.58
2018-05-03T13:41:01.644Z,35.58
2018-05-03T13:42:10.662Z,35.59
2018-05-03T13:43:20.667Z,35.88
2018-05-03T13:44:29.662Z,35.5
2018-05-03T13:45:39.456Z,35.5
2018-05-03T13:46:48.962Z,35.5
2018-05-03T13:47:58.986Z,35.5
2018-05-03T13:49:08.195Z,35.59
2018-05-03T13:50:17.480Z,35.5
2018-05-03T13:51:26.403Z,35.5
2018-05-03T13:52:35.564Z,35.5
2018-05-03T13:53:44.465Z,35.5
2018-05-03T13:54:53.345Z,35.5
2018-05-03T13:56:02.654Z,35.59
2018-05-03T13:57:12.354Z,35.4
2018-05-03T13:58:22.051Z,35.59
2018-05-03T13:59:31.548Z,35.5
2018-05-03T14:00:41.043Z,35.5
2018-05-03T14:01:50.940Z,35.5
2018-05-03T14:03:00.671Z,35.3
2018-05-03T14:04:10.117Z,35.5
2018-05-03T14:05:19.612Z,35.4
2018-05-03T14:06:28.839Z,35.5
2018-05-03T14:07:38.265Z,35.59
2018-05-03T14:08:48.226Z,35.59
2018-05-03T14:09:57.666Z,35.59
2018-05-03T14:11:07.099Z,35.4
2018-05-03T14:12:16.779Z,35.5
2018-05-03T14:13:26.210Z,35.4
2018-05-03T14:14:36.158Z,35.4
2018-05-03T14:15:45.851Z,35.59
2018-05-03T14:16:55.287Z,35.59
2018-05-03T14:18:04.444Z,35.4
2018-05-03T14:19:13.613Z,35.3
2018-05-03T14:20:23.682Z,35.5
2018-05-03T14:21:33.115Z,35.5
2018-05-03T14:22:42.281Z,35.5
2018-05-03T14:23:52.386Z,35.5
2018-05-03T14:25:01.569Z,35.5
2018-05-03T14:26:10.743Z,35.5
2018-05-03T14:27:20.159Z,35.5
2018-05-03T14:28:29.053Z,35.59
2018-05-03T14:29:38.477Z,35.59
2018-05-03T14:30:47.927Z,35.59
2018-05-03T14:31:57.636Z,35.59
2018-05-03T14:33:07.357Z,35.59
2018-05-03T14:34:16.508Z,35.5
2018-05-03T14:35:25.420Z,35.59
2018-05-03T14:36:35.088Z,35.59
2018-05-03T14:37:44.508Z,35.5
2018-05-03T14:38:54.482Z,35.88
2018-05-03T14:40:04.417Z,35.69
2018-05-03T14:41:14.337Z,35.59
2018-05-03T14:42:23.835Z,35.69
2018-05-03T14:43:33.250Z,35.5
2018-05-03T14:44:42.427Z,35.69
2018-05-03T14:45:51.851Z,35.78
2018-05-03T14:47:01.292Z,35.59
2018-05-03T14:48:10.990Z,35.69
2018-05-03T14:49:20.447Z,35.59
2018-05-03T14:50:30.186Z,35.69
2018-05-03T14:51:39.902Z,35.78
2018-05-03T14:52:49.586Z,35.69
2018-05-03T14:53:58.748Z,35.5
2018-05-03T14:55:08.299Z,35.98
2018-05-03T14:56:18.049Z,35.78
2018-05-03T14:57:27.556Z,35.69
2018-05-03T14:58:37.568Z,35.69
2018-05-03T14:59:46.991Z,35.78
2018-05-03T15:00:57.038Z,35.78
2018-05-03T15:02:06.352Z,35.69